createdAt,value
2024-05-09T00:00:18.183Z,70.46
2024-05-09T00:01:15.243Z,70.43
2024-05-09T00:01:48.651Z,70.43
2024-05-09T00:02:21.740Z,70.44
2024-05-09T00:02:55.006Z,70.47
2024-05-09T00:03:28.160Z,70.48
2024-05-09T00:04:01.477Z,70.50
2024-05-09T00:04:34.522Z,70.45
2024-05-09T00:05:10.727Z,70.44
2024-05-09T00:05:44.588Z,70.51
2024-05-09T00:06:17.832Z,70.53
2024-05-09T00:06:50.937Z,70.57
2024-05-09T00:07:23.937Z,70.65
2024-05-09T00:07:57.101Z,70.64
2024-05-09T00:08:30.371Z,70.63
2024-05-09T00:09:03.995Z,70.65
2024-05-09T00:09:37.878Z,70.79
2024-05-09T00:10:18.266Z,70.73
2024-05-09T00:10:58.495Z,70.70
2024-05-09T00:11:31.500Z,70.71
2024-05-09T00:12:04.815Z,70.80
2024-05-09T00:12:38.104Z,70.91
2024-05-09T00:13:11.572Z,71.01
2024-05-09T00:13:44.450Z,71.07
2024-05-09T00:14:17.693Z,71.11
2024-05-09T00:14:50.828Z,71.18
2024-05-09T00:15:23.979Z,71.20
2024-05-09T00:15:57.428Z,71.17
2024-05-09T00:16:30.312Z,71.13
2024-05-09T00:17:03.565Z,71.15
2024-05-09T00:17:36.744Z,71.16
2024-05-09T00:18:09.881Z,71.28
2024-05-09T00:18:43.361Z,71.39
2024-05-09T00:19:16.660Z,71.47
2024-05-09T00:19:49.880Z,71.55
2024-05-09T00:20:28.562Z,71.62
2024-05-09T00:21:10.040Z,71.73
2024-05-09T00:21:43.779Z,71.69
2024-05-09T00:22:17.131Z,71.72
2024-05-09T00:22:50.261Z,71.74
2024-05-09T00:23:23.349Z,71.78
2024-05-09T00:23:56.461Z,71.86
2024-05-09T00:24:29.411Z,71.88
2024-05-09T00:25:02.552Z,71.88
2024-05-09T00:25:35.814Z,71.86
2024-05-09T00:26:08.930Z,71.78
2024-05-09T00:26:42.090Z,71.70
2024-05-09T00:27:16.024Z,71.59
2024-05-09T00:27:49.031Z,71.53
2024-05-09T00:28:22.337Z,71.47
2024-05-09T00:28:55.702Z,71.47
2024-05-09T00:29:28.961Z,71.51
2024-05-09T00:30:04.031Z,71.55
2024-05-09T00:30:37.649Z,71.52
2024-05-09T00:31:11.037Z,71.44
2024-05-09T00:31:44.311Z,71.40
2024-05-09T00:32:17.668Z,71.50
2024-05-09T00:32:50.988Z,71.53
2024-05-09T00:33:24.769Z,71.57
2024-05-09T00:33:58.231Z,71.68
2024-05-09T00:34:31.343Z,71.83
2024-05-09T00:35:04.717Z,71.99
2024-05-09T00:35:38.149Z,72.06
2024-05-09T00:36:11.516Z,72.12
2024-05-09T00:36:44.600Z,72.13
2024-05-09T00:37:18.018Z,72.17
2024-05-09T00:37:51.140Z,72.10
2024-05-09T00:38:24.268Z,72.05
2024-05-09T00:38:57.447Z,72.03
2024-05-09T00:39:30.585Z,71.94
2024-05-09T00:40:05.796Z,71.87
2024-05-09T00:40:43.162Z,71.80
2024-05-09T00:41:19.743Z,71.70
2024-05-09T00:41:53.164Z,71.53
2024-05-09T00:42:26.238Z,71.41
2024-05-09T00:42:59.242Z,71.32
2024-05-09T00:43:32.821Z,71.20
2024-05-09T00:44:05.989Z,71.09
2024-05-09T00:44:39.059Z,71.04
2024-05-09T00:45:12.222Z,71.12
2024-05-09T00:45:46.021Z,71.22
2024-05-09T00:46:19.291Z,71.31
2024-05-09T00:46:55.490Z,71.46
2024-05-09T00:47:28.794Z,71.61
2024-05-09T00:48:06.668Z,71.64
2024-05-09T00:48:41.424Z,71.88
2024-05-09T00:49:15.055Z,72.03
2024-05-09T00:49:48.881Z,72.27
2024-05-09T00:50:29.893Z,72.42
2024-05-09T00:51:09.630Z,72.66
2024-05-09T00:51:43.098Z,72.57
2024-05-09T00:52:16.547Z,72.49
2024-05-09T00:52:50.264Z,72.50
2024-05-09T00:53:24.459Z,72.52
2024-05-09T00:53:57.974Z,72.55
2024-05-09T00:54:31.096Z,72.52
2024-05-09T00:55:04.649Z,72.40
2024-05-09T00:55:39.130Z,72.26
2024-05-09T00:56:13.153Z,72.18
2024-05-09T00:56:46.439Z,72.11
2024-05-09T00:57:19.571Z,72.02
2024-05-09T00:57:53.037Z,71.84
2024-05-09T00:58:29.632Z,71.73
2024-05-09T00:59:03.290Z,71.74
2024-05-09T00:59:36.433Z,71.70
2024-05-09T01:00:22.324Z,71.78
2024-05-09T01:01:04.493Z,71.89
2024-05-09T01:01:37.797Z,71.97
2024-05-09T01:02:11.615Z,72.11
2024-05-09T01:02:44.988Z,72.29
2024-05-09T01:03:18.472Z,72.35
2024-05-09T01:03:52.617Z,72.40
2024-05-09T01:04:25.775Z,72.48
2024-05-09T01:04:59.486Z,72.57
2024-05-09T01:05:32.897Z,72.64
2024-05-09T01:06:06.150Z,72.71
2024-05-09T01:06:39.447Z,72.75
2024-05-09T01:07:12.884Z,72.71
2024-05-09T01:07:45.766Z,72.68
2024-05-09T01:08:18.850Z,72.65
2024-05-09T01:08:52.178Z,72.57
2024-05-09T01:09:25.011Z,72.56
2024-05-09T01:09:58.061Z,72.50
2024-05-09T01:10:34.839Z,72.44
2024-05-09T01:11:09.536Z,72.39
2024-05-09T01:11:42.806Z,72.40
2024-05-09T01:12:15.995Z,72.44
2024-05-09T01:12:49.820Z,72.44
2024-05-09T01:13:23.004Z,72.46
2024-05-09T01:13:56.274Z,72.53
2024-05-09T01:14:29.312Z,72.59
2024-05-09T01:15:02.396Z,72.59
2024-05-09T01:15:36.100Z,72.59
2024-05-09T01:16:09.342Z,72.54
2024-05-09T01:16:42.634Z,72.50
2024-05-09T01:17:16.215Z,72.46
2024-05-09T01:17:49.714Z,72.39
2024-05-09T01:18:23.143Z,72.34
2024-05-09T01:18:56.956Z,72.29
2024-05-09T01:19:31.777Z,72.29
2024-05-09T01:20:06.440Z,72.33
2024-05-09T01:20:45.190Z,72.50
2024-05-09T01:21:18.915Z,72.52
2024-05-09T01:21:52.050Z,72.54
2024-05-09T01:22:27.816Z,72.61
2024-05-09T01:23:06.779Z,72.79
2024-05-09T01:23:40.226Z,72.86
2024-05-09T01:24:13.441Z,72.98
2024-05-09T01:24:46.595Z,73.11
2024-05-09T01:25:19.561Z,73.18
2024-05-09T01:25:52.692Z,73.22
2024-05-09T01:26:26.042Z,73.27
2024-05-09T01:26:59.521Z,73.29
2024-05-09T01:27:32.644Z,73.27
2024-05-09T01:28:06.538Z,73.28
2024-05-09T01:28:39.722Z,73.33
2024-05-09T01:29:13.146Z,73.32
2024-05-09T01:29:46.270Z,73.18
2024-05-09T01:30:24.342Z,73.11
2024-05-09T01:31:01.347Z,73.15
2024-05-09T01:31:34.468Z,72.98
2024-05-09T01:32:07.690Z,72.90
2024-05-09T01:32:41.008Z,72.77
2024-05-09T01:33:14.820Z,72.69
2024-05-09T01:33:47.945Z,72.67
2024-05-09T01:34:21.370Z,72.70
2024-05-09T01:34:54.486Z,72.76
2024-05-09T01:35:27.769Z,72.86
2024-05-09T01:36:01.043Z,72.88
2024-05-09T01:36:33.926Z,72.96
2024-05-09T01:37:07.134Z,73.11
2024-05-09T01:37:40.425Z,73.21
2024-05-09T01:38:14.220Z,73.16
2024-05-09T01:38:47.480Z,73.19
2024-05-09T01:39:20.631Z,73.25
2024-05-09T01:39:53.733Z,73.27
2024-05-09T01:40:36.239Z,73.21
2024-05-09T01:41:12.171Z,73.21
2024-05-09T01:41:45.055Z,73.14
2024-05-09T01:42:18.183Z,73.12
2024-05-09T01:42:51.261Z,73.11
2024-05-09T01:43:24.284Z,73.16
2024-05-09T01:43:57.433Z,73.26
2024-05-09T01:44:30.584Z,73.46
2024-05-09T01:45:03.992Z,73.63
2024-05-09T01:45:37.098Z,73.74
2024-05-09T01:46:16.978Z,73.84
2024-05-09T01:46:50.126Z,73.87
2024-05-09T01:47:23.484Z,73.90
2024-05-09T01:47:57.140Z,73.99
2024-05-09T01:48:30.369Z,74.00
2024-05-09T01:49:04.592Z,73.99
2024-05-09T01:49:38.262Z,73.98
2024-05-09T01:50:11.600Z,73.89
2024-05-09T01:50:49.476Z,73.88
2024-05-09T01:51:22.499Z,73.86
2024-05-09T01:51:55.620Z,73.87
2024-05-09T01:52:28.765Z,73.84
2024-05-09T01:53:01.981Z,73.85
2024-05-09T01:53:35.232Z,73.88
2024-05-09T01:54:08.519Z,73.85
2024-05-09T01:54:41.540Z,73.77
2024-05-09T01:55:14.739Z,73.69
2024-05-09T01:55:47.822Z,73.64
2024-05-09T01:56:20.954Z,73.66
2024-05-09T01:56:54.203Z,73.79
2024-05-09T01:57:27.172Z,73.80
2024-05-09T01:58:00.204Z,73.79
2024-05-09T01:58:33.474Z,73.76
2024-05-09T01:59:07.620Z,73.69
2024-05-09T01:59:40.787Z,73.66
2024-05-09T02:00:18.833Z,73.58
2024-05-09T02:00:58.950Z,73.56
2024-05-09T02:01:55.356Z,73.45
2024-05-09T02:02:25.353Z,73.40
2024-05-09T02:02:58.797Z,73.25
2024-05-09T02:03:32.196Z,73.21
2024-05-09T02:04:05.862Z,73.15
2024-05-09T02:04:39.519Z,73.08
2024-05-09T02:05:12.945Z,73.00
2024-05-09T02:05:48.127Z,72.99
2024-05-09T02:06:21.652Z,73.01
2024-05-09T02:06:54.607Z,73.05
2024-05-09T02:07:27.579Z,73.06
2024-05-09T02:08:00.784Z,73.09
2024-05-09T02:08:34.018Z,73.07
2024-05-09T02:09:07.462Z,72.99
2024-05-09T02:09:40.372Z,72.91
2024-05-09T02:10:20.194Z,72.88
2024-05-09T02:10:56.610Z,72.93
2024-05-09T02:11:30.467Z,72.95
2024-05-09T02:12:03.979Z,73.06
2024-05-09T02:12:37.252Z,73.13
2024-05-09T02:13:10.561Z,73.19
2024-05-09T02:13:43.472Z,73.27
2024-05-09T02:14:18.389Z,73.33
2024-05-09T02:14:51.944Z,73.40
2024-05-09T02:15:25.073Z,73.44
2024-05-09T02:15:59.211Z,73.50
2024-05-09T02:16:32.050Z,73.48
2024-05-09T02:17:05.120Z,73.40
2024-05-09T02:17:38.472Z,73.37
2024-05-09T02:18:12.005Z,73.27
2024-05-09T02:18:45.543Z,73.15
2024-05-09T02:19:18.841Z,73.03
2024-05-09T02:19:52.071Z,72.90
2024-05-09T02:20:33.548Z,72.68
2024-05-09T02:21:09.855Z,72.58
2024-05-09T02:21:42.833Z,72.53
2024-05-09T02:22:15.825Z,72.53
2024-05-09T02:22:48.885Z,72.61
2024-05-09T02:23:22.039Z,72.75
2024-05-09T02:23:55.115Z,72.85
2024-05-09T02:24:28.225Z,72.91
2024-05-09T02:25:01.297Z,72.97
2024-05-09T02:25:34.709Z,73.02
2024-05-09T02:26:08.045Z,73.02
2024-05-09T02:26:41.244Z,72.98
2024-05-09T02:27:14.236Z,73.02
2024-05-09T02:27:47.251Z,73.04
2024-05-09T02:28:23.010Z,73.04
2024-05-09T02:28:56.184Z,73.05
2024-05-09T02:29:29.503Z,72.94
2024-05-09T02:30:02.847Z,72.89
2024-05-09T02:30:40.666Z,72.91
2024-05-09T02:31:15.195Z,72.94
2024-05-09T02:31:48.357Z,72.93
2024-05-09T02:32:21.573Z,72.99
2024-05-09T02:32:54.819Z,72.93
2024-05-09T02:33:28.705Z,72.87
2024-05-09T02:34:02.117Z,72.89
2024-05-09T02:34:35.204Z,72.86
2024-05-09T02:35:08.269Z,72.84
2024-05-09T02:35:42.786Z,72.90
2024-05-09T02:36:16.631Z,73.02
2024-05-09T02:36:49.712Z,73.11
2024-05-09T02:37:22.653Z,73.14
2024-05-09T02:37:55.782Z,73.18
2024-05-09T02:38:28.971Z,73.24
2024-05-09T02:39:01.965Z,73.32
2024-05-09T02:39:34.969Z,73.45
2024-05-09T02:40:14.247Z,73.50
2024-05-09T02:40:47.989Z,73.60
2024-05-09T02:41:21.274Z,73.52
2024-05-09T02:41:54.529Z,73.52
2024-05-09T02:42:27.528Z,73.47
2024-05-09T02:43:01.056Z,73.47
2024-05-09T02:43:34.067Z,73.53
2024-05-09T02:44:07.256Z,73.50
2024-05-09T02:44:40.362Z,73.37
2024-05-09T02:45:13.505Z,73.24
2024-05-09T02:45:46.360Z,73.29
2024-05-09T02:46:19.266Z,73.38
2024-05-09T02:46:52.502Z,73.52
2024-05-09T02:47:25.661Z,73.62
2024-05-09T02:47:59.315Z,73.75
2024-05-09T02:48:32.755Z,73.81
2024-05-09T02:49:06.224Z,73.96
2024-05-09T02:49:39.540Z,74.02
2024-05-09T02:50:46.400Z,74.22
2024-05-09T02:51:19.599Z,74.29
2024-05-09T02:51:52.724Z,74.31
2024-05-09T02:52:25.816Z,74.33
2024-05-09T02:52:59.017Z,74.36
2024-05-09T02:53:32.445Z,74.41
2024-05-09T02:54:07.662Z,74.45
2024-05-09T02:54:40.726Z,74.55
2024-05-09T02:55:14.092Z,74.58
2024-05-09T02:55:47.485Z,74.61
2024-05-09T02:56:20.659Z,74.61
2024-05-09T02:56:53.922Z,74.49
2024-05-09T02:57:26.985Z,74.38
2024-05-09T02:58:00.157Z,74.32
2024-05-09T02:58:33.400Z,74.29
2024-05-09T02:59:06.645Z,74.19
2024-05-09T02:59:39.745Z,74.07
2024-05-09T03:00:19.011Z,74.00
2024-05-09T03:00:58.890Z,73.94
2024-05-09T03:01:32.039Z,73.87
2024-05-09T03:02:05.311Z,73.85
2024-05-09T03:02:38.663Z,73.87
2024-05-09T03:03:14.318Z,73.86
2024-05-09T03:03:51.553Z,73.89
2024-05-09T03:04:24.947Z,73.93
2024-05-09T03:04:58.942Z,73.98
2024-05-09T03:05:32.243Z,74.06
2024-05-09T03:06:05.634Z,74.13
2024-05-09T03:06:44.879Z,74.12
2024-05-09T03:07:20.063Z,74.14
2024-05-09T03:07:53.410Z,74.07
2024-05-09T03:08:28.118Z,74.08
2024-05-09T03:09:01.238Z,74.12
2024-05-09T03:09:34.431Z,74.11
2024-05-09T03:10:18.027Z,74.12
2024-05-09T03:10:55.545Z,74.14
2024-05-09T03:11:28.896Z,74.04
2024-05-09T03:12:02.091Z,74.00
2024-05-09T03:12:37.884Z,73.94
2024-05-09T03:13:15.683Z,73.88
2024-05-09T03:13:53.823Z,73.81
2024-05-09T03:14:26.863Z,73.81
2024-05-09T03:15:00.269Z,73.87
2024-05-09T03:15:33.405Z,73.87
2024-05-09T03:16:06.664Z,73.89
2024-05-09T03:16:39.785Z,73.87
2024-05-09T03:17:13.010Z,73.87
2024-05-09T03:17:46.552Z,73.85
2024-05-09T03:18:20.087Z,73.79
2024-05-09T03:18:55.139Z,73.73
2024-05-09T03:19:28.456Z,73.80
2024-05-09T03:20:04.140Z,73.84
2024-05-09T03:20:39.226Z,73.92
2024-05-09T03:21:12.549Z,74.01
2024-05-09T03:21:45.672Z,74.06
2024-05-09T03:22:18.696Z,74.16
2024-05-09T03:22:54.067Z,74.23
2024-05-09T03:23:28.440Z,74.30
2024-05-09T03:24:01.432Z,74.31
2024-05-09T03:24:34.372Z,74.31
2024-05-09T03:25:07.536Z,74.29
2024-05-09T03:25:40.851Z,74.39
2024-05-09T03:26:15.264Z,74.46
2024-05-09T03:26:48.431Z,74.50
2024-05-09T03:27:21.606Z,74.47
2024-05-09T03:27:54.941Z,74.41
2024-05-09T03:28:27.854Z,74.32
2024-05-09T03:29:01.033Z,74.27
2024-05-09T03:29:34.392Z,74.23
2024-05-09T03:30:09.943Z,74.21
2024-05-09T03:30:43.583Z,74.28
2024-05-09T03:31:18.624Z,74.22
2024-05-09T03:31:51.773Z,74.18
2024-05-09T03:32:24.845Z,74.22
2024-05-09T03:32:58.235Z,74.17
2024-05-09T03:33:31.921Z,74.12
2024-05-09T03:34:05.397Z,74.09
2024-05-09T03:34:41.691Z,74.16
2024-05-09T03:35:14.765Z,74.25
2024-05-09T03:35:48.733Z,74.26
2024-05-09T03:36:22.419Z,74.27
2024-05-09T03:36:55.611Z,74.30
2024-05-09T03:37:28.580Z,74.35
2024-05-09T03:38:01.878Z,74.38
2024-05-09T03:38:41.420Z,74.40
2024-05-09T03:39:14.619Z,74.48
2024-05-09T03:39:47.657Z,74.51
2024-05-09T03:40:24.117Z,74.59
2024-05-09T03:40:59.926Z,74.71
2024-05-09T03:41:33.360Z,74.64
2024-05-09T03:42:06.539Z,74.60
2024-05-09T03:42:41.812Z,74.50
2024-05-09T03:43:15.545Z,74.42
2024-05-09T03:43:48.805Z,74.27
2024-05-09T03:44:21.972Z,74.12
2024-05-09T03:44:55.283Z,74.12
2024-05-09T03:45:28.669Z,74.11
2024-05-09T03:46:01.829Z,74.01
2024-05-09T03:46:38.885Z,73.95
2024-05-09T03:47:12.168Z,73.97
2024-05-09T03:47:45.608Z,73.98
2024-05-09T03:48:19.332Z,74.00
2024-05-09T03:48:52.603Z,73.95
2024-05-09T03:49:25.971Z,73.97
2024-05-09T03:49:59.314Z,73.94
2024-05-09T03:50:35.582Z,73.95
2024-05-09T03:51:09.876Z,74.02
2024-05-09T03:51:43.558Z,74.04
2024-05-09T03:52:16.608Z,74.09
2024-05-09T03:52:49.904Z,74.17
2024-05-09T03:53:23.249Z,74.24
2024-05-09T03:53:56.902Z,74.33
2024-05-09T03:54:29.986Z,74.39
2024-05-09T03:55:03.099Z,74.41
2024-05-09T03:55:36.414Z,74.46
2024-05-09T03:56:09.621Z,74.48
2024-05-09T03:56:42.843Z,74.48
2024-05-09T03:57:16.050Z,74.52
2024-05-09T03:57:49.004Z,74.57
2024-05-09T03:58:21.970Z,74.60
2024-05-09T03:58:55.245Z,74.61
2024-05-09T03:59:28.680Z,74.57
2024-05-09T04:00:03.019Z,74.56
2024-05-09T04:00:39.441Z,74.54
2024-05-09T04:01:13.630Z,74.62
2024-05-09T04:01:46.742Z,74.59
2024-05-09T04:02:19.954Z,74.57
2024-05-09T04:02:53.226Z,74.54
2024-05-09T04:03:26.874Z,74.51
2024-05-09T04:04:00.253Z,74.44
2024-05-09T04:04:33.495Z,74.42
2024-05-09T04:05:06.571Z,74.48
2024-05-09T04:05:41.938Z,74.56
2024-05-09T04:06:23.358Z,74.61
2024-05-09T04:06:56.367Z,74.64
2024-05-09T04:07:29.476Z,74.67
2024-05-09T04:08:02.575Z,74.68
2024-05-09T04:08:35.900Z,74.71
2024-05-09T04:09:09.488Z,74.73
2024-05-09T04:09:42.500Z,74.79
2024-05-09T04:10:24.013Z,74.88
2024-05-09T04:11:04.155Z,74.93
2024-05-09T04:11:37.789Z,74.91
2024-05-09T04:12:11.347Z,74.87
2024-05-09T04:12:44.513Z,74.91
2024-05-09T04:13:17.648Z,75.02
2024-05-09T04:13:50.843Z,75.10
2024-05-09T04:14:24.103Z,75.11
2024-05-09T04:14:57.250Z,75.12
2024-05-09T04:15:30.385Z,75.16
2024-05-09T04:16:03.653Z,75.19
2024-05-09T04:16:36.896Z,75.19
2024-05-09T04:17:10.072Z,75.14
2024-05-09T04:17:47.370Z,75.04
2024-05-09T04:18:20.738Z,74.97
2024-05-09T04:18:54.270Z,74.89
2024-05-09T04:19:27.799Z,74.88
2024-05-09T04:20:01.203Z,74.88
2024-05-09T04:20:38.966Z,74.87
2024-05-09T04:21:14.172Z,74.90
2024-05-09T04:21:47.319Z,74.83
2024-05-09T04:22:20.435Z,74.83
2024-05-09T04:22:53.471Z,74.84
2024-05-09T04:23:26.649Z,74.87
2024-05-09T04:23:59.783Z,74.87
2024-05-09T04:24:33.060Z,74.91
2024-05-09T04:25:06.472Z,74.93
2024-05-09T04:25:44.582Z,74.96
2024-05-09T04:26:18.081Z,75.01
2024-05-09T04:26:51.015Z,75.04
2024-05-09T04:27:24.207Z,75.12
2024-05-09T04:27:57.444Z,75.15
2024-05-09T04:28:30.986Z,75.17
2024-05-09T04:29:04.042Z,75.16
2024-05-09T04:29:40.050Z,75.08
2024-05-09T04:30:21.595Z,74.99
2024-05-09T04:31:03.329Z,74.94
2024-05-09T04:31:36.787Z,74.80
2024-05-09T04:32:10.090Z,74.69
2024-05-09T04:32:43.871Z,74.60
2024-05-09T04:33:19.255Z,74.50
2024-05-09T04:33:52.983Z,74.49
2024-05-09T04:34:26.012Z,74.27
2024-05-09T04:34:59.317Z,74.20
2024-05-09T04:35:32.570Z,73.98
2024-05-09T04:36:06.964Z,73.73
2024-05-09T04:36:43.198Z,73.65
2024-05-09T04:37:17.762Z,73.69
2024-05-09T04:37:50.961Z,73.65
2024-05-09T04:38:24.144Z,73.51
2024-05-09T04:38:57.165Z,73.45
2024-05-09T04:39:30.235Z,73.46
2024-05-09T04:40:05.400Z,73.53
2024-05-09T04:40:40.244Z,73.62
2024-05-09T04:41:13.536Z,73.68
2024-05-09T04:41:46.452Z,73.65
2024-05-09T04:42:19.412Z,73.65
2024-05-09T04:42:52.520Z,73.72
2024-05-09T04:43:25.708Z,73.85
2024-05-09T04:43:58.828Z,73.94
2024-05-09T04:44:32.230Z,73.79
2024-05-09T04:45:05.646Z,73.58
2024-05-09T04:45:38.644Z,73.21
2024-05-09T04:46:11.653Z,72.83
2024-05-09T04:46:44.866Z,72.57
2024-05-09T04:47:18.243Z,72.56
2024-05-09T04:47:51.872Z,72.66
2024-05-09T04:48:25.229Z,72.76
2024-05-09T04:48:58.313Z,72.66
2024-05-09T04:49:31.461Z,72.57
2024-05-09T04:50:08.860Z,72.53
2024-05-09T04:50:44.573Z,72.69
2024-05-09T04:51:17.732Z,72.68
2024-05-09T04:51:50.744Z,72.56
2024-05-09T04:52:23.844Z,72.24
2024-05-09T04:52:56.877Z,71.81
2024-05-09T04:53:29.920Z,71.47
2024-05-09T04:54:02.993Z,71.33
2024-05-09T04:54:36.861Z,71.38
2024-05-09T04:55:10.134Z,71.13
2024-05-09T04:55:43.365Z,70.72
2024-05-09T04:56:16.682Z,70.66
2024-05-09T04:56:49.807Z,70.66
2024-05-09T04:57:22.863Z,70.61
2024-05-09T04:57:55.879Z,70.63
2024-05-09T04:58:28.964Z,70.47
2024-05-09T04:59:02.106Z,70.36
2024-05-09T04:59:36.521Z,70.05
2024-05-09T05:00:14.768Z,69.99
2024-05-09T05:00:54.842Z,69.94
2024-05-09T05:01:28.083Z,69.69
2024-05-09T05:02:01.207Z,69.55
2024-05-09T05:02:34.503Z,69.50
2024-05-09T05:03:11.013Z,69.51
2024-05-09T05:03:46.379Z,69.68
2024-05-09T05:04:19.619Z,69.76
2024-05-09T05:04:52.764Z,69.72
2024-05-09T05:05:25.921Z,69.51
2024-05-09T05:05:59.004Z,69.15
2024-05-09T05:06:32.080Z,68.96
2024-05-09T05:07:05.197Z,68.81
2024-05-09T05:07:38.161Z,68.70
2024-05-09T05:08:13.131Z,68.72
2024-05-09T05:08:46.725Z,68.88
2024-05-09T05:09:19.872Z,69.00
2024-05-09T05:09:53.265Z,69.17
2024-05-09T05:10:33.765Z,69.26
2024-05-09T05:11:12.191Z,68.95
2024-05-09T05:11:45.342Z,68.76
2024-05-09T05:12:36.720Z,68.60
2024-05-09T05:13:20.768Z,68.72
2024-05-09T05:13:55.326Z,68.86
2024-05-09T05:14:28.430Z,68.77
2024-05-09T05:15:01.484Z,68.79
2024-05-09T05:15:34.544Z,68.98
2024-05-09T05:16:07.756Z,69.26
2024-05-09T05:16:40.803Z,69.37
2024-05-09T05:17:13.911Z,69.33
2024-05-09T05:17:47.255Z,69.24
2024-05-09T05:18:21.344Z,69.17
2024-05-09T05:18:54.811Z,68.83
2024-05-09T05:19:28.221Z,68.64
2024-05-09T05:20:01.614Z,68.47
2024-05-09T05:20:35.037Z,68.31
2024-05-09T05:21:08.225Z,68.43
2024-05-09T05:21:41.153Z,68.45
2024-05-09T05:22:14.199Z,67.99
2024-05-09T05:22:47.925Z,67.76
2024-05-09T05:23:22.407Z,67.67
2024-05-09T05:23:55.597Z,67.42
2024-05-09T05:24:28.780Z,67.56
2024-05-09T05:25:02.037Z,67.44
2024-05-09T05:25:35.126Z,67.13
2024-05-09T05:26:08.289Z,66.92
2024-05-09T05:26:41.570Z,66.99
2024-05-09T05:27:14.710Z,66.83
2024-05-09T05:27:47.760Z,66.68
2024-05-09T05:28:21.962Z,66.73
2024-05-09T05:28:55.307Z,66.66
2024-05-09T05:29:28.708Z,66.68
2024-05-09T05:30:01.700Z,66.55
2024-05-09T05:30:37.835Z,66.36
2024-05-09T05:31:11.087Z,65.98
2024-05-09T05:31:44.532Z,65.81
2024-05-09T05:32:17.839Z,65.67
2024-05-09T05:32:50.978Z,65.50
2024-05-09T05:33:24.292Z,65.34
2024-05-09T05:33:57.396Z,65.44
2024-05-09T05:34:31.505Z,65.29
2024-05-09T05:35:05.058Z,65.13
2024-05-09T05:35:38.369Z,64.85
2024-05-09T05:36:11.517Z,64.76
2024-05-09T05:36:44.605Z,64.42
2024-05-09T05:37:17.709Z,63.95
2024-05-09T05:37:50.724Z,63.30
2024-05-09T05:38:27.393Z,63.14
2024-05-09T05:39:01.526Z,63.13
2024-05-09T05:39:34.564Z,63.01
2024-05-09T05:40:11.888Z,63.10
2024-05-09T05:40:47.420Z,63.17
2024-05-09T05:41:20.590Z,62.79
2024-05-09T05:41:53.728Z,62.88
2024-05-09T05:42:26.635Z,62.92
2024-05-09T05:42:59.663Z,63.09
2024-05-09T05:43:32.609Z,63.15
2024-05-09T05:44:05.741Z,63.01
2024-05-09T05:44:38.842Z,62.84
2024-05-09T05:45:11.971Z,62.74
2024-05-09T05:45:46.013Z,62.23
2024-05-09T05:46:19.109Z,62.09
2024-05-09T05:46:52.039Z,62.34
2024-05-09T05:47:25.133Z,62.48
2024-05-09T05:47:58.435Z,62.70
2024-05-09T05:48:31.635Z,62.34
2024-05-09T05:49:04.830Z,62.20
2024-05-09T05:49:38.024Z,62.06
2024-05-09T05:50:20.760Z,61.85
2024-05-09T05:51:03.643Z,61.89
2024-05-09T05:51:37.462Z,61.62
2024-05-09T05:52:11.150Z,61.68
2024-05-09T05:52:44.190Z,61.21
2024-05-09T05:53:17.356Z,61.20
2024-05-09T05:53:50.500Z,61.35
2024-05-09T05:54:23.814Z,61.21
2024-05-09T05:54:56.906Z,61.07
2024-05-09T05:55:29.909Z,61.04
2024-05-09T05:56:03.004Z,61.28
2024-05-09T05:56:36.259Z,61.50
2024-05-09T05:57:09.220Z,61.52
2024-05-09T05:57:42.237Z,61.62
2024-05-09T05:58:15.366Z,61.22
2024-05-09T05:58:48.598Z,61.02
2024-05-09T05:59:24.071Z,60.99
2024-05-09T05:59:56.974Z,61.14
2024-05-09T06:00:37.675Z,60.83
2024-05-09T06:01:13.012Z,60.74
2024-05-09T06:01:46.272Z,60.25
2024-05-09T06:02:19.758Z,60.11
2024-05-09T06:02:53.240Z,60.11
2024-05-09T06:03:26.400Z,60.13
2024-05-09T06:03:59.655Z,59.97
2024-05-09T06:04:32.963Z,59.61
2024-05-09T06:05:06.416Z,59.65
2024-05-09T06:05:40.874Z,59.94
2024-05-09T06:06:14.297Z,60.17
2024-05-09T06:06:48.672Z,60.39
2024-05-09T06:07:22.025Z,60.10
2024-05-09T06:07:55.145Z,60.06
2024-05-09T06:08:30.150Z,59.87
2024-05-09T06:09:03.636Z,59.03
2024-05-09T06:09:36.738Z,58.53
2024-05-09T06:10:17.270Z,58.17
2024-05-09T06:10:54.867Z,58.05
2024-05-09T06:11:28.026Z,57.79
2024-05-09T06:12:01.303Z,57.53
2024-05-09T06:12:34.389Z,57.62
2024-05-09T06:13:10.436Z,57.51
2024-05-09T06:13:43.901Z,57.60
2024-05-09T06:14:17.359Z,57.56
2024-05-09T06:14:50.539Z,57.63
2024-05-09T06:15:23.564Z,57.87
2024-05-09T06:15:56.662Z,57.49
2024-05-09T06:16:29.784Z,57.56
2024-05-09T06:17:02.860Z,57.70
2024-05-09T06:17:36.128Z,57.16
2024-05-09T06:18:11.134Z,56.67
2024-05-09T06:18:46.855Z,56.29
2024-05-09T06:19:20.163Z,56.10
2024-05-09T06:19:53.601Z,55.60
2024-05-09T06:20:34.830Z,55.79
2024-05-09T06:21:10.474Z,56.14
2024-05-09T06:21:43.521Z,56.47
2024-05-09T06:22:16.480Z,56.30
2024-05-09T06:22:49.493Z,55.76
2024-05-09T06:23:22.484Z,55.46
2024-05-09T06:23:55.551Z,55.39
2024-05-09T06:24:28.717Z,55.86
2024-05-09T06:25:01.630Z,56.31
2024-05-09T06:25:35.750Z,56.42
2024-05-09T06:26:08.904Z,56.46
2024-05-09T06:26:42.727Z,56.49
2024-05-09T06:27:15.853Z,56.97
2024-05-09T06:27:49.592Z,57.21
2024-05-09T06:28:22.801Z,57.08
2024-05-09T06:28:55.754Z,56.98
2024-05-09T06:29:29.026Z,56.31
2024-05-09T06:30:02.350Z,55.73
2024-05-09T06:30:42.203Z,55.32
2024-05-09T06:31:16.432Z,55.03
2024-05-09T06:31:49.691Z,54.99
2024-05-09T06:32:23.095Z,54.35
2024-05-09T06:32:56.576Z,54.10
2024-05-09T06:33:30.195Z,54.56
2024-05-09T06:34:04.555Z,55.10
2024-05-09T06:34:37.729Z,55.45
2024-05-09T06:35:10.990Z,55.55
2024-05-09T06:35:46.772Z,55.31
2024-05-09T06:36:20.030Z,55.43
2024-05-09T06:36:53.116Z,55.80
2024-05-09T06:37:26.248Z,56.21
2024-05-09T06:37:59.318Z,56.32
2024-05-09T06:38:33.077Z,56.32
2024-05-09T06:39:06.266Z,56.69
2024-05-09T06:39:39.303Z,56.67
2024-05-09T06:40:45.419Z,56.53
2024-05-09T06:41:18.495Z,55.82
2024-05-09T06:41:52.111Z,55.76
2024-05-09T06:42:25.163Z,55.85
2024-05-09T06:42:59.162Z,55.56
2024-05-09T06:43:32.433Z,55.58
2024-05-09T06:44:05.579Z,55.59
2024-05-09T06:44:38.624Z,55.72
2024-05-09T06:45:11.728Z,55.75
2024-05-09T06:45:46.057Z,55.77
2024-05-09T06:46:19.141Z,55.95
2024-05-09T06:46:52.309Z,56.44
2024-05-09T06:47:25.393Z,56.56
2024-05-09T06:47:58.549Z,55.84
2024-05-09T06:48:31.848Z,55.85
2024-05-09T06:49:08.353Z,56.24
2024-05-09T06:49:41.635Z,56.47
2024-05-09T06:50:23.253Z,56.45
2024-05-09T06:50:57.922Z,56.40
2024-05-09T06:51:30.913Z,56.19
2024-05-09T06:52:04.268Z,56.12
2024-05-09T06:52:37.182Z,55.44
2024-05-09T06:53:10.584Z,54.98
2024-05-09T06:53:43.779Z,55.00
2024-05-09T06:54:18.315Z,55.17
2024-05-09T06:54:51.359Z,55.48
2024-05-09T06:55:24.429Z,55.80
2024-05-09T06:55:57.379Z,56.01
2024-05-09T06:56:30.290Z,55.54
2024-05-09T06:57:03.811Z,55.87
2024-05-09T06:57:38.388Z,56.07
2024-05-09T06:58:12.105Z,55.73
2024-05-09T06:58:45.024Z,55.65
2024-05-09T06:59:18.246Z,55.72
2024-05-09T06:59:51.253Z,55.68
2024-05-09T07:00:30.855Z,55.66
2024-05-09T07:01:11.322Z,55.19
2024-05-09T07:01:44.515Z,53.74
2024-05-09T07:02:17.542Z,53.22
2024-05-09T07:02:50.686Z,52.84
2024-05-09T07:03:24.053Z,52.42
2024-05-09T07:03:57.056Z,52.46
2024-05-09T07:04:30.612Z,52.50
2024-05-09T07:05:04.272Z,52.63
2024-05-09T07:05:37.677Z,52.84
2024-05-09T07:06:10.815Z,52.94
2024-05-09T07:06:43.878Z,52.91
2024-05-09T07:07:16.811Z,52.43
2024-05-09T07:07:49.996Z,52.77
2024-05-09T07:08:23.256Z,53.32
2024-05-09T07:08:56.199Z,53.65
2024-05-09T07:09:29.250Z,53.86
2024-05-09T07:10:02.159Z,54.09
2024-05-09T07:10:36.510Z,54.15
2024-05-09T07:11:10.237Z,54.19
2024-05-09T07:11:43.579Z,54.68
2024-05-09T07:12:16.901Z,54.98
2024-05-09T07:12:50.165Z,54.23
2024-05-09T07:13:23.463Z,53.70
2024-05-09T07:13:56.704Z,53.13
2024-05-09T07:14:30.339Z,52.71
2024-05-09T07:15:03.443Z,52.59
2024-05-09T07:15:36.586Z,52.25
2024-05-09T07:16:09.647Z,51.94
2024-05-09T07:16:42.631Z,51.73
2024-05-09T07:17:15.760Z,51.82
2024-05-09T07:17:49.006Z,52.30
2024-05-09T07:18:22.476Z,52.68
2024-05-09T07:18:56.119Z,52.60
2024-05-09T07:19:29.526Z,52.26